.
WxDataArchive / Data Records for 2008-03-09
2008-03-08 March 2008 2008-03-10

Data Records for Sunday, 09 March 2008

Time	Temp	Chill	HIndex	Humid	Dewpt	 Wind 	HiWind	WindDir	Rain 	Barom 
-----	----	-----	------	-----	-----	------	------	-------	-----	----- 
00:00	19.9	19.9	19.9	69	11.4	1	5	248	0.00	30.115 
00:05	19.9	19.9	19.9	69	11.4	3	7	248	0.00	30.113 
00:10	20.0	20.0	20.0	71	12.1	1	4	248	0.00	30.113 
00:15	20.0	20.0	20.0	72	12.5	1	6	248	0.00	30.114 
00:20	19.9	19.9	19.9	73	12.7	1	7	248	0.00	30.115 
00:25	20.0	20.0	20.0	73	12.8	1	4	248	0.00	30.117 
00:30	20.0	20.0	20.0	74	13.1	1	4	248	0.00	30.120 
00:35	20.0	20.0	20.0	75	13.4	1	4	248	0.00	30.122 
00:40	20.2	20.2	20.2	76	13.9	1	5	270	0.00	30.124 
00:45	20.2	20.2	20.2	77	14.2	1	4	248	0.00	30.127 
00:50	20.2	20.2	20.2	77	14.2	1	3	248	0.00	30.129 
00:55	20.0	20.0	20.0	78	14.3	1	4	248	0.00	30.130 
01:00	19.9	19.9	19.9	78	14.2	1	3	248	0.00	30.130 
01:05	19.9	19.9	19.9	79	14.5	1	4	248	0.00	30.129 
01:10	19.7	19.7	19.7	79	14.3	0	1	248	0.00	30.129 
01:15	19.5	19.5	19.5	79	14.1	1	4	248	0.00	30.129 
01:20	19.5	19.5	19.5	79	14.1	0	2	248	0.00	30.131 
01:25	19.4	19.4	19.4	79	14.0	1	4	248	0.00	30.137 
01:30	19.4	19.4	19.4	79	14.0	1	3	248	0.00	30.138 
01:35	19.4	19.4	19.4	79	14.0	1	2	248	0.00	30.141 
01:40	19.4	19.4	19.4	79	14.0	1	3	248	0.00	30.143 
01:45	19.4	19.4	19.4	80	14.3	1	4	248	0.00	30.143 
01:50	19.4	19.4	19.4	80	14.3	1	3	248	0.00	30.143 
01:55	19.4	19.4	19.4	81	14.5	2	4	248	0.00	30.143 
03:00	19.4	19.4	19.4	81	14.5	1	3	248	0.00	30.143 
03:05	19.4	19.4	19.4	81	14.5	1	4	248	0.00	30.141 
03:10	19.2	19.2	19.2	81	14.3	0	3	248	0.00	30.140 
03:15	19.2	19.2	19.2	82	14.6	0	3	248	0.00	30.139 
03:20	19.1	19.1	19.1	82	14.5	0	1	248	0.00	30.139 
03:25	18.9	18.9	18.9	82	14.3	0	2	248	0.00	30.140 
03:30	18.9	18.9	18.9	82	14.3	1	3	248	0.00	30.141 
03:35	18.9	18.9	18.9	82	14.3	1	3	248	0.00	30.142 
03:40	18.9	18.9	18.9	82	14.3	1	4	248	0.00	30.142 
03:45	18.8	18.8	18.8	82	14.2	0	3	248	0.00	30.142 
03:50	18.8	18.8	18.8	82	14.2	0	1	248	0.00	30.142 
03:55	18.6	18.6	18.6	82	14.0	0	3	248	0.00	30.142 
04:00	16.9	16.9	16.9	83	12.6	0	1	248	0.00	30.148 
04:05	16.7	16.7	16.7	83	12.5	0	0	---	0.00	30.151 
04:10	16.4	16.4	16.4	83	12.2	0	0	---	0.00	30.155 
04:15	16.4	16.4	16.4	83	12.2	0	1	248	0.00	30.160 
04:20	16.4	16.4	16.4	84	12.4	0	1	248	0.00	30.161 
04:25	16.4	16.4	16.4	84	12.4	0	1	248	0.00	30.162 
04:30	16.5	16.5	16.5	84	12.5	0	2	248	0.00	30.167 
04:35	16.7	16.7	16.7	84	12.7	0	2	248	0.00	30.175 
04:40	16.9	16.9	16.9	84	12.9	0	2	248	0.00	30.178 
04:45	17.2	17.2	17.2	83	12.9	1	3	248	0.00	30.184 
04:50	17.7	17.7	17.7	81	12.9	1	3	248	0.00	30.183 
04:55	18.0	18.0	18.0	80	12.9	1	2	248	0.00	30.182 
05:00	18.1	18.1	18.1	78	12.4	1	3	248	0.00	30.186 
05:05	18.3	18.3	18.3	77	12.3	1	3	248	0.00	30.190 
05:10	18.4	18.4	18.4	76	12.1	1	3	248	0.00	30.192 
05:15	18.6	18.6	18.6	74	11.7	2	5	248	0.00	30.198 
05:20	18.8	18.8	18.8	74	11.9	1	3	248	0.00	30.203 
05:25	18.9	18.9	18.9	73	11.7	1	4	248	0.00	30.206 
05:30	19.1	19.1	19.1	73	11.9	0	3	248	0.00	30.207 
05:35	19.2	19.2	19.2	72	11.7	1	5	248	0.00	30.206 
05:40	19.2	19.2	19.2	71	11.4	0	2	270	0.00	30.207 
05:45	19.2	19.2	19.2	71	11.4	0	2	270	0.00	30.208 
05:50	19.2	19.2	19.2	71	11.4	0	2	270	0.00	30.208 
05:55	19.2	19.2	19.2	70	11.0	1	3	270	0.00	30.207 
06:00	19.2	19.2	19.2	70	11.0	1	3	248	0.00	30.208 
06:05	19.2	19.2	19.2	70	11.0	0	1	248	0.00	30.209 
06:10	19.2	19.2	19.2	70	11.0	0	1	248	0.00	30.212 
06:15	19.1	19.1	19.1	70	11.0	0	2	248	0.00	30.215 
06:20	19.1	19.1	19.1	70	11.0	0	1	248	0.00	30.218 
06:25	18.9	18.9	18.9	70	10.8	0	2	248	0.00	30.222 
06:30	18.9	18.9	18.9	70	10.8	0	1	248	0.00	30.224 
06:35	18.8	18.8	18.8	71	11.0	0	0	---	0.00	30.226 
06:40	18.6	18.6	18.6	71	10.8	0	0	---	0.00	30.228 
06:45	18.6	18.6	18.6	71	10.8	0	1	248	0.00	30.235 
06:50	18.8	18.8	18.8	71	11.0	0	1	248	0.00	30.234 
06:55	18.8	18.8	18.8	71	11.0	0	2	248	0.00	30.238 
07:00	18.9	18.9	18.9	71	11.1	0	2	248	0.00	30.239 
07:05	18.9	18.9	18.9	70	10.8	0	1	248	0.00	30.241 
07:10	18.9	18.9	18.9	70	10.8	0	1	248	0.00	30.242 
07:15	18.8	18.8	18.8	70	10.7	0	1	248	0.00	30.245 
07:20	18.6	18.6	18.6	70	10.5	0	0	---	0.00	30.251 
07:25	18.4	18.4	18.4	71	10.6	0	0	---	0.00	30.251 
07:30	18.3	18.3	18.3	72	10.8	0	0	---	0.00	30.254 
07:35	18.3	18.3	18.3	72	10.8	0	0	---	0.00	30.255 
07:40	18.6	18.6	18.6	73	11.4	0	0	---	0.00	30.256 
07:45	18.9	18.9	18.9	72	11.4	0	0	---	0.00	30.256 
07:50	19.2	19.2	19.2	72	11.7	0	0	---	0.00	30.256 
07:55	19.5	19.5	19.5	71	11.7	0	0	---	0.00	30.257 
08:00	20.0	20.0	20.0	70	11.8	0	0	---	0.00	30.255 
08:05	20.3	20.3	20.3	69	11.8	0	1	248	0.00	30.258 
08:10	20.5	20.5	20.5	69	12.0	0	2	248	0.00	30.258 
08:15	20.8	20.8	20.8	68	11.9	0	2	248	0.00	30.259 
08:20	21.1	21.1	21.1	68	12.2	0	2	248	0.00	30.262 
08:25	21.4	21.4	21.4	67	12.2	0	1	248	0.00	30.268 
08:30	21.8	21.8	21.8	66	12.2	1	3	112	0.00	30.268 
08:35	21.8	21.8	21.8	67	12.6	0	3	112	0.00	30.269 
08:40	22.1	22.1	22.1	67	12.8	0	1	112	0.00	30.272 
08:45	22.4	22.4	22.4	66	12.8	0	1	112	0.00	30.272 
08:50	22.9	22.9	22.9	65	12.9	0	2	112	0.00	30.274 
08:55	23.2	23.2	23.2	64	12.9	0	2	112	0.00	30.276 
09:00	23.6	23.6	23.6	64	13.2	0	3	112	0.00	30.278 
09:05	23.9	23.9	23.9	63	13.2	1	2	112	0.00	30.282 
09:10	24.1	24.1	24.1	62	13.0	1	4	112	0.00	30.280 
09:15	23.8	23.8	23.8	63	13.1	1	3	112	0.00	30.280 
09:20	23.8	23.8	23.8	63	13.1	1	3	135	0.00	30.277 
09:25	23.8	23.8	23.8	62	12.7	2	4	112	0.00	30.278 
09:30	24.1	24.1	24.1	63	13.4	1	4	90	0.00	30.277 
09:35	24.5	24.5	24.5	62	13.4	1	2	68	0.00	30.277 
09:40	25.1	25.1	25.1	61	13.6	1	3	90	0.00	30.282 
09:45	25.4	25.4	25.4	61	13.9	1	3	90	0.00	30.284 
09:50	25.7	25.7	25.7	60	13.8	1	4	270	0.00	30.284 
09:55	26.0	26.0	26.0	60	14.0	1	3	68	0.00	30.285 
10:00	26.3	26.3	26.3	60	14.3	1	3	112	0.00	30.285 
10:05	26.4	26.4	26.4	59	14.0	1	3	270	0.00	30.285 
10:10	26.6	26.6	26.6	58	13.8	1	5	90	0.00	30.285 
10:15	26.7	26.7	26.7	59	14.3	1	3	112	0.00	30.284 
10:20	27.2	27.2	27.2	58	14.4	1	4	112	0.00	30.286 
10:25	27.3	27.3	27.3	57	14.1	2	4	112	0.00	30.287 
10:30	27.5	27.5	27.5	57	14.3	2	7	90	0.00	30.286 
10:35	27.3	27.3	27.3	57	14.1	1	4	270	0.00	30.288 
10:40	28.1	28.1	28.1	58	15.3	1	3	248	0.00	30.285 
10:45	28.4	28.4	28.4	54	13.9	1	3	68	0.00	30.284 
10:50	28.8	28.8	28.8	54	14.3	1	5	248	0.00	30.285 
10:55	29.0	29.0	29.0	54	14.5	1	3	112	0.01	30.286 
11:00	29.3	29.3	29.3	54	14.7	1	4	112	0.00	30.288 
11:05	29.7	29.7	29.7	54	15.1	1	6	90	0.00	30.281 
11:10	30.0	30.0	30.0	54	15.4	0	2	90	0.00	30.279 
11:15	30.6	30.6	30.6	53	15.5	1	3	90	0.00	30.281 
11:20	31.2	31.2	31.2	51	15.2	1	3	90	0.00	30.281 
11:25	31.2	31.2	31.2	52	15.6	1	3	90	0.00	30.279 
11:30	30.9	30.9	30.9	51	14.9	1	5	90	0.00	30.278 
11:35	30.1	30.1	30.1	53	15.1	2	6	90	0.00	30.270 
11:40	30.6	30.6	30.6	52	15.1	2	4	68	0.00	30.264 
11:45	30.7	30.7	30.7	51	14.7	1	4	90	0.00	30.272 
11:50	31.0	31.0	31.0	50	14.6	1	4	112	0.00	30.277 
11:55	31.2	31.2	31.2	50	14.8	2	4	135	0.00	30.279 
12:00	30.9	30.9	30.9	50	14.5	2	5	112	0.01	30.279 
12:05	30.9	30.9	30.9	50	14.5	1	3	90	0.00	30.280 
12:10	31.2	31.2	31.2	49	14.3	1	3	112	0.00	30.284 
12:15	31.6	31.6	31.6	48	14.2	1	3	90	0.00	30.279 
12:20	31.9	31.9	31.9	50	15.4	1	4	90	0.00	30.280 
12:25	32.7	32.7	32.7	44	13.2	1	3	112	0.00	30.278 
12:30	32.9	32.9	32.9	46	14.4	1	3	112	0.00	30.277 
12:35	33.2	33.2	33.2	46	14.7	1	3	292	0.00	30.277 
12:40	33.5	33.5	33.5	47	15.5	1	4	112	0.01	30.280 
12:45	33.2	33.2	33.2	45	14.2	2	5	112	0.00	30.278 
12:50	32.7	32.7	32.7	48	15.2	2	4	90	0.00	30.277 
12:55	32.4	32.4	32.4	45	13.5	1	5	112	0.00	30.278 
13:00	32.4	32.4	32.4	49	15.4	2	5	90	0.00	30.279 
13:05	31.9	31.9	31.9	49	14.9	2	5	90	0.00	30.284 
13:10	32.5	32.5	32.5	50	16.0	1	4	112	0.00	30.282 
13:15	32.4	32.4	32.4	49	15.4	2	5	112	0.00	30.279 
13:20	32.4	32.4	32.4	49	15.4	1	4	90	0.00	30.280 
13:25	32.7	32.7	32.7	46	14.2	1	5	90	0.01	30.278 
13:30	33.1	33.1	33.1	45	14.1	1	3	68	0.00	30.275 
13:35	33.4	33.4	33.4	43	13.3	1	3	68	0.00	30.273 
13:40	33.5	33.5	33.5	44	14.0	1	3	112	0.00	30.274 
13:45	33.4	33.4	33.4	46	14.9	1	5	90	0.00	30.276 
13:50	33.2	33.2	33.2	44	13.7	2	4	90	0.00	30.273 
13:55	33.2	33.2	33.2	47	15.2	1	6	90	0.00	30.269 
14:00	33.5	33.5	33.5	46	15.0	1	6	112	0.00	30.273 
14:05	33.8	33.8	33.8	46	15.2	1	4	68	0.00	30.270 
14:10	34.0	34.0	34.0	46	15.4	2	5	112	0.00	30.266 
14:15	34.1	34.1	34.1	49	17.0	1	4	112	0.00	30.264 
14:20	34.3	34.3	34.3	47	16.2	2	5	112	0.01	30.264 
14:25	34.1	34.1	34.1	47	16.0	2	4	112	0.00	30.263 
14:30	34.1	34.1	34.1	48	16.5	2	5	112	0.00	30.261 
14:35	33.8	33.8	33.8	49	16.7	2	4	112	0.00	30.261 
14:40	33.5	33.5	33.5	50	16.9	3	6	90	0.00	30.261 
14:45	33.5	33.5	33.5	50	16.9	2	6	112	0.00	30.260 
14:50	33.5	33.5	33.5	51	17.3	2	5	112	0.00	30.260 
14:55	33.7	33.7	33.7	51	17.5	2	5	112	0.00	30.254 
15:00	33.7	33.7	33.7	51	17.5	2	6	112	0.00	30.253 
15:05	33.7	33.7	33.7	52	18.0	2	4	90	0.00	30.261 
15:10	33.8	33.8	33.8	54	18.9	1	5	112	0.00	30.263 
15:15	33.7	33.7	33.7	54	18.8	2	9	112	0.00	30.262 
15:20	33.5	33.5	33.5	54	18.7	2	4	112	0.00	30.262 
15:25	33.5	33.5	33.5	55	19.1	2	4	112	0.00	30.257 
15:30	33.5	33.5	33.5	55	19.1	2	4	90	0.00	30.258 
15:35	33.5	33.5	33.5	55	19.1	2	4	90	0.00	30.256 
15:40	33.7	33.7	33.7	56	19.7	2	5	112	0.00	30.260 
15:45	33.7	33.7	33.7	56	19.7	2	6	112	0.00	30.262 
15:50	33.8	33.8	33.8	57	20.2	1	5	112	0.00	30.262 
15:55	34.1	34.1	34.1	57	20.5	1	4	112	0.00	30.253 
16:00	34.1	34.1	34.1	56	20.1	2	5	112	0.00	30.249 
16:05	34.3	34.3	34.3	57	20.7	1	4	112	0.00	30.251 
16:10	34.1	34.1	34.1	56	20.1	1	5	112	0.00	30.254 
16:15	34.1	34.1	34.1	56	20.1	2	5	112	0.00	30.253 
16:20	34.1	34.1	34.1	57	20.5	1	3	112	0.00	30.251 
16:25	34.1	34.1	34.1	57	20.5	2	4	112	0.00	30.248 
16:30	34.1	34.1	34.1	57	20.5	2	5	112	0.00	30.247 
16:35	34.1	34.1	34.1	58	20.9	1	4	112	0.00	30.247 
16:40	34.1	34.1	34.1	58	20.9	2	6	112	0.00	30.246 
16:45	34.1	34.1	34.1	59	21.3	1	5	112	0.00	30.246 
16:50	34.0	34.0	34.0	59	21.2	2	6	90	0.00	30.247 
16:55	33.7	33.7	33.7	60	21.3	1	5	135	0.00	30.248 
17:00	33.5	33.5	33.5	60	21.1	1	7	90	0.00	30.249 
17:05	33.5	33.5	33.5	61	21.5	1	3	270	0.01	30.256 
17:10	33.5	33.5	33.5	61	21.5	2	4	112	0.00	30.256 
17:15	33.4	33.4	33.4	62	21.8	1	4	90	0.00	30.258 
17:20	33.5	33.5	33.5	62	21.9	1	3	90	0.00	30.260 
17:25	33.5	33.5	33.5	62	21.9	1	3	112	0.00	30.260 
17:30	33.4	33.4	33.4	62	21.8	1	3	112	0.00	30.259 
17:35	33.4	33.4	33.4	63	22.2	2	5	112	0.00	30.260 
17:40	33.2	33.2	33.2	63	22.0	1	5	112	0.00	30.260 
17:45	33.2	33.2	33.2	64	22.4	1	4	112	0.00	30.259 
17:50	33.2	33.2	33.2	64	22.4	1	3	112	0.00	30.258 
17:55	33.2	33.2	33.2	64	22.4	1	2	112	0.00	30.258 
18:00	33.2	33.2	33.2	65	22.7	0	2	135	0.00	30.259 
18:05	33.1	33.1	33.1	64	22.3	1	3	112	0.00	30.260 
18:10	33.1	33.1	33.1	65	22.6	1	3	90	0.00	30.262 
18:15	32.9	32.9	32.9	64	22.1	1	4	90	0.00	30.262 
18:20	32.9	32.9	32.9	65	22.4	1	3	112	0.00	30.261 
18:25	32.8	32.8	32.8	65	22.3	1	3	135	0.00	30.261 
18:30	32.7	32.7	32.7	66	22.6	0	2	112	0.00	30.260 
18:35	32.7	32.7	32.7	67	23.0	0	2	112	0.00	30.263 
18:40	32.5	32.5	32.5	67	22.8	1	3	135	0.00	30.263 
18:45	32.4	32.4	32.4	68	23.0	0	3	112	0.00	30.267 
18:50	32.2	32.2	32.2	68	22.8	1	3	112	0.00	30.267 
18:55	32.2	32.2	32.2	69	23.2	0	2	112	0.00	30.266 
19:00	32.1	32.1	32.1	69	23.1	1	2	112	0.00	30.264 
19:05	32.1	32.1	32.1	70	23.4	0	2	112	0.00	30.266 
19:10	31.9	31.9	31.9	70	23.2	0	2	112	0.00	30.270 
19:15	31.9	31.9	31.9	71	23.6	1	3	112	0.00	30.268 
19:20	31.9	31.9	31.9	71	23.6	0	2	112	0.00	30.271 
19:25	31.8	31.8	31.8	71	23.5	0	2	135	0.00	30.275 
19:30	31.8	31.8	31.8	72	23.8	0	1	135	0.00	30.275 
19:35	31.8	31.8	31.8	72	23.8	0	1	135	0.00	30.275 
19:40	31.8	31.8	31.8	73	24.1	0	1	135	0.00	30.272 
19:45	31.8	31.8	31.8	73	24.1	0	2	135	0.00	30.272 
19:50	31.8	31.8	31.8	73	24.1	0	1	135	0.00	30.274 
19:55	31.8	31.8	31.8	72	23.8	0	1	135	0.00	30.276 
20:00	31.8	31.8	31.8	73	24.1	0	1	135	0.00	30.276 
20:05	31.8	31.8	31.8	73	24.1	0	1	135	0.00	30.273 
20:10	31.8	31.8	31.8	73	24.1	0	1	135	0.00	30.273 
20:15	31.8	31.8	31.8	73	24.1	0	1	135	0.00	30.273 
20:20	31.8	31.8	31.8	73	24.1	0	1	135	0.00	30.273 
20:25	31.8	31.8	31.8	74	24.5	0	0	---	0.00	30.273 
20:30	31.8	31.8	31.8	74	24.5	0	1	135	0.00	30.274 
20:35	31.8	31.8	31.8	74	24.5	0	0	---	0.00	30.277 
20:40	31.6	31.6	31.6	74	24.3	0	0	---	0.00	30.277 
20:45	31.6	31.6	31.6	75	24.6	0	0	---	0.00	30.280 
20:50	31.5	31.5	31.5	74	24.2	0	0	---	0.00	30.283 
20:55	31.5	31.5	31.5	74	24.2	0	0	---	0.00	30.285 
21:00	31.5	31.5	31.5	75	24.5	0	0	---	0.00	30.287 
21:05	31.3	31.3	31.3	75	24.3	0	0	---	0.00	30.288 
21:10	31.3	31.3	31.3	75	24.3	0	0	---	0.00	30.286 
21:15	31.3	31.3	31.3	75	24.3	0	0	---	0.00	30.286 
21:20	31.3	31.3	31.3	75	24.3	0	0	---	0.00	30.287 
21:25	31.2	31.2	31.2	75	24.2	0	0	---	0.00	30.287 
21:30	31.2	31.2	31.2	75	24.2	0	0	---	0.00	30.287 
21:35	31.2	31.2	31.2	76	24.5	0	0	---	0.00	30.288 
21:40	31.2	31.2	31.2	76	24.5	0	0	---	0.00	30.289 
21:45	31.0	31.0	31.0	76	24.3	0	0	---	0.00	30.289 
21:50	31.0	31.0	31.0	76	24.3	0	0	---	0.00	30.290 
21:55	30.9	30.9	30.9	77	24.6	0	0	---	0.00	30.289 
22:00	30.9	30.9	30.9	77	24.6	0	0	---	0.00	30.289 
22:05	30.7	30.7	30.7	77	24.4	0	0	---	0.00	30.286 
22:10	30.6	30.6	30.6	78	24.6	0	0	---	0.00	30.286 
22:15	30.6	30.6	30.6	79	24.9	0	0	---	0.00	30.287 
22:20	30.6	30.6	30.6	79	24.9	0	0	---	0.00	30.286 
22:25	30.6	30.6	30.6	79	24.9	0	0	---	0.00	30.288 
22:30	30.6	30.6	30.6	79	24.9	0	0	---	0.00	30.290 
22:35	30.4	30.4	30.4	79	24.7	0	0	---	0.00	30.289 
22:40	30.4	30.4	30.4	79	24.7	0	0	---	0.00	30.291 
22:45	30.3	30.3	30.3	80	24.9	0	0	---	0.00	30.290 
22:50	30.1	30.1	30.1	80	24.7	0	0	---	0.00	30.289 
22:55	30.1	30.1	30.1	80	24.7	0	0	---	0.00	30.289 
23:00	30.0	30.0	30.0	80	24.6	0	0	---	0.00	30.290 
23:05	29.8	29.8	29.8	81	24.7	0	0	---	0.00	30.289 
23:10	29.8	29.8	29.8	81	24.7	0	0	---	0.00	30.288 
23:15	29.8	29.8	29.8	81	24.7	0	0	---	0.00	30.287 
23:20	29.7	29.7	29.7	81	24.6	0	0	---	0.00	30.288 
23:25	29.5	29.5	29.5	82	24.7	0	0	---	0.00	30.289 
23:30	29.4	29.4	29.4	82	24.6	0	0	---	0.00	30.289 
23:35	29.4	29.4	29.4	82	24.6	0	0	---	0.00	30.290 
23:40	29.1	29.1	29.1	82	24.3	0	0	---	0.00	30.289 
23:45	29.0	29.0	29.0	82	24.2	0	0	---	0.00	30.293 
23:50	28.8	28.8	28.8	82	24.0	0	0	---	0.00	30.292 
23:55	28.7	28.7	28.7	83	24.2	0	0	---	0.00	30.291 
20080310 00:00	28.5	28.5	28.5	84	24.3	0	0	---	0.00	30.288 
20080310 00:05	28.4	28.4	28.4	84	24.2	0	0	---	0.00	30.288 
20080310 00:10	28.2	28.2	28.2	84	24.0	0	0	---	0.00	30.288 
20080310 00:15	28.2	28.2	28.2	84	24.0	0	0	---	0.00	30.290 
20080310 00:20	28.1	28.1	28.1	84	23.9	0	0	---	0.00	30.291 
20080310 00:25	28.1	28.1	28.1	84	23.9	0	0	---	0.00	30.292 
20080310 00:30	28.2	28.2	28.2	84	24.0	0	1	135	0.00	30.291 
20080310 00:35	28.2	28.2	28.2	84	24.0	0	1	135	0.00	30.287 
20080310 00:40	28.2	28.2	28.2	84	24.0	0	1	135	0.00	30.287 
20080310 00:45	28.2	28.2	28.2	84	24.0	0	1	135	0.00	30.286 
20080310 00:50	28.2	28.2	28.2	84	24.0	0	1	135	0.00	30.286 
20080310 00:55	28.1	28.1	28.1	84	23.9	0	1	135	0.00	30.285 

CoCoRaHS
IN-AL-39
A2 Web Hosting
Creative Commons License
GoDaddy
Look for:

loaded 2017-10-17 18:16:57 • last modified 2010-11-18 10:43:29
Privacy PolicyDisclaimer
• wx.awcolley.com is powered by PmWiki v.2002016 •
• all content (unless otherwise noted) © 2017 A W Colley